• Join FlightAware (Why Join?)
  • Login
  • US Flag 
07:06PM EST


 

Airport Tracker/Info


-or-


 

Live Flight TrackerFlight Track Log ✈ ASQ3807 ✈ 05-May-2013 ✈ KEWR - KPVD

Flight Track Log - Related Links

Times and Time Zones

All times are in EDT time to prevent confusion due to time zone crossing. See the ASQ3807 flight status page for this flight to view local times or setup timezone preferences in your user account.

Time Position Orientation Groundspeed Altitude Reporting Facility
EDT Latitude Longitude Course Direction KTS MPH feet Rate Location/Type
09:58PM 40.6333 -74.1833 59° Northeast 186 214 2,000  Level New York TRACON
09:59PM 40.6500 -74.2500 288° West 248 285 3,700 1,680 Climbing New York TRACON
10:00PM 40.8249 -73.8835 57° Northeast  Level FlightAware Approximate
10:00PM 40.6833 -74.1833 57° Northeast 245 282 5,600  Level New York TRACON
10:01PM 40.8707 -73.7919 56° Northeast  Level FlightAware Approximate
10:01PM 40.7333 -74.1167 45° Northeast 271 312 8,000  Level New York TRACON
10:02PM 40.9182 -73.6966 59° Northeast  Level FlightAware Approximate
10:02PM 40.7667 -74.0333 62° Northeast 270 311 9,600  Level New York TRACON
10:03PM 40.9627 -73.5988 59° Northeast  Level FlightAware Approximate
10:04PM 40.8489 -73.8806 55° Northeast 304 350 10,800  Level Boston Center
10:05PM 40.8981 -73.7856 56° Northeast 332 382 12,000 1,020 Climbing Boston Center
10:06PM 40.9536 -73.6714 57° Northeast 350 403 12,900 480 Climbing Boston Center
10:07PM 41.0089 -73.5542 58° Northeast 365 420 13,000  Climbing Boston Center
10:08PM 41.0706 -73.4258 57° Northeast 365 420 13,000 -60 Level Boston Center
10:09PM 41.1258 -73.3192 55° Northeast 378 435 12,900 -60 Descending Boston Center
10:10PM 41.1808 -73.1986 59° Northeast 378 435 12,900  Level Boston Center
10:11PM 41.2378 -73.0833 57° Northeast 378 435 12,900  Level Boston Center
10:12PM 41.2822 -72.9483 66° East 357 411 13,000  Climbing Boston Center
10:13PM 41.2889 -72.8131 86° East 358 412 13,000  Level Boston Center
10:14PM 41.2956 -72.6750 86° East 371 427 13,000  Level Boston Center
10:15PM 41.3019 -72.5367 86° East 371 427 13,000  Level Boston Center
10:15PM 41.3125 -72.4153 83° East 378 435 13,000 -300 Level Boston Center
10:16PM 41.3167 -72.3047 87° East 378 435 12,500 -720 Descending Boston Center
10:17PM 41.3208 -72.2578 83° East 371 427 12,200 -900 Descending Boston Center
10:17PM 41.3225 -72.1664 89° East 373 429 11,600 -780 Descending Boston Center
10:18PM 41.3267 -72.1389 79° East 366 421 11,300 -1,140 Descending Boston Center
10:18PM 41.3306 -72.0503 87° East 312 359 10,500 -1,200 Descending Boston Center
10:19PM 41.3803 -71.9586 54° Northeast 290 334 9,500 -1,020 Descending Boston Center
10:20PM 41.4300 -71.8808 50° Northeast 278 320 8,500 -1,080 Descending Boston Center
10:21PM 41.4878 -71.8083 43° Northeast 272 313 7,400 -1,080 Descending Boston Center
10:22PM 41.5481 -71.7550 34° Northeast 266 306 6,400 -1,020 Descending Boston Center
10:23PM 41.6081 -71.7017 34° Northeast 260 299 5,400 -720 Descending Boston Center
10:24PM 41.6683 -71.6508 32° Northeast 258 297 5,000 -480 Descending Boston Center
10:25PM 41.7283 -71.6000 32° Northeast 252 290 4,500 -780 Descending Boston Center
10:26PM 41.7861 -71.5492 33° Northeast 246 283 3,500 -780 Descending Boston Center
10:27PM 41.8381 -71.5039 33° Northeast 228 262 3,000 -300 Descending Boston Center
10:28PM 41.8856 -71.4558 37° Northeast 219 252 3,000 -300 Level Boston Center
10:29PM 41.9078 -71.3856 67° East 211 243 2,400 -480 Descending Boston Center
10:30PM 41.8844 -71.3331 121° Southeast 201 231 2,100 -180 Descending Boston Center
10:31PM 41.8364 -71.3339 181° South 194 223 2,100 -300 Level Boston Center
10:32PM 41.7889 -71.3736 212° Southwest 187 215 1,500 -720 Descending Boston Center
10:33PM 41.7558 -71.4050 215° Southwest 141 162 700 -840 Descending Boston Center